Time;durP1;ratioP1;P1;durP2;ratioP2;P2;SDS_P1;SDS_P2;PMS_P1;PMS_P2;Temp;Humidity;BMP_temperature;BMP_pressure;BME280_temperature;BME280_humidity;BME280_pressure;Samples;Min_cycle;Max_cycle;Signal;HPM_P1;HPM_P2
2022/11/23 00:01:47;;;;;;;6.82;3.65;;;;;;;;;;5110824;28;20028;-67
2022/11/23 00:04:12;;;;;;;5.45;2.70;;;;;;;;;;5094959;28;20028;-69
2022/11/23 00:06:38;;;;;;;4.57;3.10;;;;;;;;;;5095276;28;20461;-68
2022/11/23 00:09:03;;;;;;;5.38;2.85;;;;;;;;;;5095215;28;20031;-66
2022/11/23 00:11:29;;;;;;;3.33;2.38;;;;;;;;;;5110714;28;20027;-68
2022/11/23 00:13:54;;;;;;;4.78;2.58;;;;;;;;;;5095011;28;20469;-68
2022/11/23 00:16:24;;;;;;;5.38;3.10;;;;;;;;;;5110671;28;20030;-69
2022/11/23 00:18:53;;;;;;;5.13;2.88;;;;;;;;;;5094760;28;20019;-68
2022/11/23 00:21:20;;;;;;;5.47;2.60;;;;;;;;;;5110325;28;20082;-67
2022/11/23 00:23:45;;;;;;;3.58;2.38;;;;;;;;;;5110544;28;20016;-69
2022/11/23 00:26:11;;;;;;;4.25;2.78;;;;;;;;;;5110447;28;20024;-66
2022/11/23 00:28:38;;;;;;;3.92;2.22;;;;;;;;;;5094600;28;20035;-69
2022/11/23 00:31:07;;;;;;;7.40;3.15;;;;;;;;;;5094445;28;20051;-69
2022/11/23 00:33:33;;;;;;;4.50;2.65;;;;;;;;;;5110117;28;20028;-69
2022/11/23 00:36:04;;;;;;;5.20;3.08;;;;;;;;;;5094507;28;20103;-70
2022/11/23 00:38:29;;;;;;;4.57;2.30;;;;;;;;;;5094543;28;20099;-69
2022/11/23 00:41:02;;;;;;;4.70;2.78;;;;;;;;;;5094313;28;20111;-68
2022/11/23 00:43:28;;;;;;;3.70;2.45;;;;;;;;;;5110152;28;20024;-70
2022/11/23 00:46:07;;;;;;;2.50;1.15;;;;;;;;;;5110005;28;20107;-69
2022/11/23 00:48:33;;;;;;;7.20;2.67;;;;;;;;;;5094494;28;20020;-69
2022/11/23 00:50:59;;;;;;;4.15;2.17;;;;;;;;;;5094307;28;20023;-68
2022/11/23 00:53:25;;;;;;;3.20;2.00;;;;;;;;;;5109980;28;20038;-68
2022/11/23 00:55:51;;;;;;;2.78;1.95;;;;;;;;;;5094467;28;20417;-68
2022/11/23 00:58:16;;;;;;;4.38;2.00;;;;;;;;;;5092459;28;20455;-69
2022/11/23 01:00:42;;;;;;;4.25;2.50;;;;;;;;;;5094364;28;20030;-68
2022/11/23 01:03:08;;;;;;;2.97;1.77;;;;;;;;;;5093686;28;20065;-68
2022/11/23 01:05:37;;;;;;;3.15;1.40;;;;;;;;;;5093964;28;20035;-69
2022/11/23 01:08:02;;;;;;;2.83;2.10;;;;;;;;;;5109809;28;20479;-69
2022/11/23 01:10:28;;;;;;;3.70;1.67;;;;;;;;;;5092822;28;20051;-69
2022/11/23 01:12:54;;;;;;;2.25;1.63;;;;;;;;;;5094051;28;20043;-70
2022/11/23 01:15:19;;;;;;;3.55;2.17;;;;;;;;;;5094220;28;20378;-69
2022/11/23 01:17:44;;;;;;;3.72;2.05;;;;;;;;;;5093935;28;20103;-68
2022/11/23 01:20:10;;;;;;;5.93;2.10;;;;;;;;;;5109448;28;20032;-69
2022/11/23 01:22:35;;;;;;;6.22;1.50;;;;;;;;;;5093980;28;20024;-69
2022/11/23 01:25:01;;;;;;;4.68;1.83;;;;;;;;;;5093609;28;20019;-68
2022/11/23 01:27:26;;;;;;;3.53;2.40;;;;;;;;;;5109149;28;20081;-69
2022/11/23 01:29:51;;;;;;;4.00;1.70;;;;;;;;;;5109310;28;20046;-69
2022/11/23 01:32:17;;;;;;;3.72;2.30;;;;;;;;;;5093621;28;20018;-68
2022/11/23 01:34:42;;;;;;;3.13;1.50;;;;;;;;;;5109126;28;20117;-69
2022/11/23 01:37:07;;;;;;;2.45;1.52;;;;;;;;;;5108904;28;20016;-68
2022/11/23 01:39:33;;;;;;;2.50;1.45;;;;;;;;;;5093388;28;20500;-67
2022/11/23 01:41:58;;;;;;;4.70;1.58;;;;;;;;;;5093123;28;20484;-68
2022/11/23 01:44:24;;;;;;;3.45;1.42;;;;;;;;;;5093434;28;20022;-70
2022/11/23 01:46:49;;;;;;;2.78;1.80;;;;;;;;;;5093336;28;20032;-69
2022/11/23 01:49:15;;;;;;;2.30;1.50;;;;;;;;;;5108804;28;20106;-69
2022/11/23 01:51:43;;;;;;;3.53;1.52;;;;;;;;;;5109101;28;20104;-69
2022/11/23 01:54:21;;;;;;;2.47;1.40;;;;;;;;;;5093097;28;20384;-68
2022/11/23 01:56:50;;;;;;;2.17;1.52;;;;;;;;;;5108476;28;20074;-69
2022/11/23 01:59:16;;;;;;;2.88;1.67;;;;;;;;;;5093240;28;20602;-69
2022/11/23 02:01:42;;;;;;;2.88;1.35;;;;;;;;;;5092854;28;20032;-69
2022/11/23 02:04:10;;;;;;;6.18;1.52;;;;;;;;;;5092912;28;20368;-68
2022/11/23 02:06:36;;;;;;;2.38;1.15;;;;;;;;;;5092774;28;20061;-67
2022/11/23 02:09:01;;;;;;;3.22;1.27;;;;;;;;;;5092512;28;20105;-68
2022/11/23 02:11:27;;;;;;;1.80;1.20;;;;;;;;;;5092731;28;20016;-68
2022/11/23 02:13:52;;;;;;;3.17;1.10;;;;;;;;;;5092912;28;20020;-68
2022/11/23 02:16:18;;;;;;;2.90;1.23;;;;;;;;;;5093119;28;20022;-69
2022/11/23 02:18:44;;;;;;;2.13;1.33;;;;;;;;;;5092635;28;20056;-69
2022/11/23 02:21:09;;;;;;;2.47;1.38;;;;;;;;;;5092345;28;20388;-69
2022/11/23 02:23:46;;;;;;;3.85;1.73;;;;;;;;;;5092535;28;20016;-69
2022/11/23 02:26:21;;;;;;;2.38;1.20;;;;;;;;;;5092822;28;20533;-68
2022/11/23 02:28:53;;;;;;;4.45;1.25;;;;;;;;;;5092602;28;20050;-69
2022/11/23 02:31:18;;;;;;;3.50;1.35;;;;;;;;;;5092207;28;20434;-69
2022/11/23 02:33:44;;;;;;;2.85;1.60;;;;;;;;;;5092365;28;20012;-67
2022/11/23 02:36:33;;;;;;;3.30;1.38;;;;;;;;;;5108052;28;20012;-69
2022/11/23 02:39:00;;;;;;;2.03;1.27;;;;;;;;;;5092270;28;20089;-69
2022/11/23 02:41:25;;;;;;;2.47;1.60;;;;;;;;;;5092351;28;20105;-68
2022/11/23 02:43:53;;;;;;;2.35;1.58;;;;;;;;;;5092377;28;20089;-70
2022/11/23 02:46:18;;;;;;;1.63;0.98;;;;;;;;;;5107786;28;20020;-69
2022/11/23 02:48:43;;;;;;;2.58;1.27;;;;;;;;;;5092120;28;20022;-70
2022/11/23 02:51:09;;;;;;;3.70;1.00;;;;;;;;;;5092036;28;20012;-69
2022/11/23 02:53:34;;;;;;;1.73;1.25;;;;;;;;;;5092229;28;20019;-68
2022/11/23 02:55:59;;;;;;;1.20;0.88;;;;;;;;;;5092129;28;20069;-67
2022/11/23 02:58:25;;;;;;;1.80;0.90;;;;;;;;;;5092178;28;20048;-68
2022/11/23 03:00:50;;;;;;;2.63;1.20;;;;;;;;;;5107833;28;20036;-66
2022/11/23 03:03:16;;;;;;;1.58;0.70;;;;;;;;;;5091913;28;20460;-67
2022/11/23 03:05:41;;;;;;;1.00;0.85;;;;;;;;;;5092210;28;20023;-70
2022/11/23 03:08:08;;;;;;;3.63;0.90;;;;;;;;;;5107873;28;20099;-68
2022/11/23 03:10:34;;;;;;;3.25;1.00;;;;;;;;;;5092506;28;20483;-67
2022/11/23 03:12:59;;;;;;;1.40;0.70;;;;;;;;;;5091809;28;20031;-68
2022/11/23 03:15:25;;;;;;;0.68;0.50;;;;;;;;;;5107611;28;20115;-70
2022/11/23 03:17:50;;;;;;;3.63;0.98;;;;;;;;;;5091952;28;20028;-70
2022/11/23 03:20:16;;;;;;;2.75;0.82;;;;;;;;;;5091831;28;20499;-67
2022/11/23 03:22:42;;;;;;;0.80;0.50;;;;;;;;;;5092050;28;20020;-68
2022/11/23 03:25:08;;;;;;;2.17;0.98;;;;;;;;;;5091765;28;20016;-67
2022/11/23 03:27:33;;;;;;;3.25;1.23;;;;;;;;;;5107733;28;20085;-70
2022/11/23 03:29:59;;;;;;;0.95;0.70;;;;;;;;;;5107577;28;20030;-68
2022/11/23 03:32:25;;;;;;;1.10;0.60;;;;;;;;;;5092147;28;20012;-67
2022/11/23 03:34:50;;;;;;;1.65;0.82;;;;;;;;;;5095607;28;20020;-68
2022/11/23 03:37:16;;;;;;;4.78;0.60;;;;;;;;;;5095573;28;20165;-69
2022/11/23 03:39:41;;;;;;;1.55;0.88;;;;;;;;;;5095734;28;20069;-69
2022/11/23 03:42:06;;;;;;;1.60;0.95;;;;;;;;;;5111301;28;20035;-68
2022/11/23 03:44:32;;;;;;;0.70;0.30;;;;;;;;;;5095668;28;20024;-69
2022/11/23 03:46:58;;;;;;;1.67;0.90;;;;;;;;;;5095326;28;20027;-68
2022/11/23 03:49:23;;;;;;;2.40;1.20;;;;;;;;;;5095591;28;20035;-67
2022/11/23 03:51:49;;;;;;;1.48;1.00;;;;;;;;;;5095562;28;20012;-69
2022/11/23 03:54:14;;;;;;;2.05;0.60;;;;;;;;;;5095678;28;20020;-70
2022/11/23 03:56:39;;;;;;;2.38;0.70;;;;;;;;;;5110849;28;20495;-69
2022/11/23 03:59:05;;;;;;;1.38;0.98;;;;;;;;;;5095080;28;20376;-70
2022/11/23 04:01:30;;;;;;;1.27;0.88;;;;;;;;;;5095175;28;20137;-69
2022/11/23 04:03:56;;;;;;;1.40;0.50;;;;;;;;;;5110719;28;20035;-68
2022/11/23 04:06:21;;;;;;;1.10;0.73;;;;;;;;;;5095389;28;20024;-69
2022/11/23 04:08:46;;;;;;;2.35;1.02;;;;;;;;;;5095079;28;20016;-68
2022/11/23 04:11:12;;;;;;;1.77;0.80;;;;;;;;;;5094933;28;20012;-68
2022/11/23 04:13:37;;;;;;;3.38;0.57;;;;;;;;;;5110785;28;20024;-68
2022/11/23 04:16:06;;;;;;;1.70;0.73;;;;;;;;;;5094963;28;20027;-68
2022/11/23 04:18:32;;;;;;;1.50;0.75;;;;;;;;;;5110774;28;20091;-68
2022/11/23 04:20:57;;;;;;;2.67;0.82;;;;;;;;;;5094989;28;20370;-69
2022/11/23 04:23:23;;;;;;;3.58;1.02;;;;;;;;;;5094690;28;20020;-68
2022/11/23 04:25:48;;;;;;;1.08;0.75;;;;;;;;;;5094825;28;20020;-68
2022/11/23 04:28:13;;;;;;;2.40;0.77;;;;;;;;;;5094875;28;20020;-70
2022/11/23 04:30:40;;;;;;;2.95;0.80;;;;;;;;;;5110268;28;20021;-66
2022/11/23 04:33:05;;;;;;;1.08;0.63;;;;;;;;;;5094502;28;20065;-68
2022/11/23 04:35:31;;;;;;;1.35;0.95;;;;;;;;;;5094813;28;20028;-68
2022/11/23 04:37:56;;;;;;;0.63;0.50;;;;;;;;;;5094614;28;20013;-68
2022/11/23 04:40:21;;;;;;;1.10;0.63;;;;;;;;;;5110061;28;20094;-66
2022/11/23 04:42:47;;;;;;;2.80;1.08;;;;;;;;;;5094871;28;20096;-68
2022/11/23 04:45:12;;;;;;;1.52;0.77;;;;;;;;;;5093845;28;20380;-66
2022/11/23 04:47:37;;;;;;;1.80;0.70;;;;;;;;;;5094427;28;20069;-69
2022/11/23 04:50:03;;;;;;;3.08;1.17;;;;;;;;;;5110072;28;20430;-69
2022/11/23 04:52:28;;;;;;;2.10;0.52;;;;;;;;;;5094651;28;20016;-68
2022/11/23 04:54:54;;;;;;;3.33;0.80;;;;;;;;;;5094525;28;20047;-69
2022/11/23 04:57:19;;;;;;;1.27;0.85;;;;;;;;;;5094059;28;20055;-67
2022/11/23 04:59:44;;;;;;;1.52;0.80;;;;;;;;;;5093967;28;20008;-70
2022/11/23 05:02:10;;;;;;;2.40;0.93;;;;;;;;;;5093775;28;20057;-70
2022/11/23 05:04:35;;;;;;;2.78;1.35;;;;;;;;;;5094181;28;20041;-70
2022/11/23 05:07:01;;;;;;;1.45;0.55;;;;;;;;;;5093800;28;20069;-68
2022/11/23 05:09:26;;;;;;;3.13;0.90;;;;;;;;;;5093904;28;20022;-70
2022/11/23 05:11:51;;;;;;;2.38;1.25;;;;;;;;;;5093778;28;20020;-71
2022/11/23 05:14:17;;;;;;;2.80;1.20;;;;;;;;;;5093715;28;20008;-71
2022/11/23 05:16:42;;;;;;;1.52;1.08;;;;;;;;;;5093863;28;20016;-70
2022/11/23 05:19:08;;;;;;;1.13;0.90;;;;;;;;;;5093576;28;20016;-69
2022/11/23 05:21:33;;;;;;;1.92;0.85;;;;;;;;;;5093471;28;20448;-70
2022/11/23 05:23:58;;;;;;;1.60;1.08;;;;;;;;;;5093408;28;20027;-69
2022/11/23 05:26:24;;;;;;;2.63;0.93;;;;;;;;;;5093528;28;20472;-72
2022/11/23 05:28:49;;;;;;;4.45;1.42;;;;;;;;;;5093211;28;20012;-70
2022/11/23 05:31:14;;;;;;;2.65;1.10;;;;;;;;;;5092968;28;20070;-70
2022/11/23 05:33:40;;;;;;;1.98;0.82;;;;;;;;;;5109169;28;20087;-69
2022/11/23 05:36:05;;;;;;;0.98;0.60;;;;;;;;;;5093297;28;20020;-70
2022/11/23 05:38:31;;;;;;;3.70;1.30;;;;;;;;;;5108655;28;20027;-70
2022/11/23 05:40:56;;;;;;;1.40;0.40;;;;;;;;;;5093010;28;20062;-71
2022/11/23 05:43:22;;;;;;;1.90;0.77;;;;;;;;;;5093243;28;20015;-70
2022/11/23 05:45:47;;;;;;;2.63;1.42;;;;;;;;;;5092859;28;20073;-71
2022/11/23 05:48:12;;;;;;;3.42;1.20;;;;;;;;;;5092948;28;20031;-69
2022/11/23 05:50:38;;;;;;;1.75;1.08;;;;;;;;;;5092891;28;20476;-70
2022/11/23 05:53:03;;;;;;;2.72;1.52;;;;;;;;;;5107624;28;20017;-69
2022/11/23 05:55:28;;;;;;;1.75;1.42;;;;;;;;;;5092291;28;20020;-68
2022/11/23 05:57:54;;;;;;;2.78;1.65;;;;;;;;;;5092249;28;20060;-71
2022/11/23 06:00:19;;;;;;;2.30;1.80;;;;;;;;;;5092547;28;20106;-69
2022/11/23 06:02:45;;;;;;;3.97;1.50;;;;;;;;;;5108243;28;20426;-69
2022/11/23 06:05:10;;;;;;;2.00;1.42;;;;;;;;;;5092968;28;20415;-71
2022/11/23 06:07:36;;;;;;;3.25;1.85;;;;;;;;;;5092492;28;20034;-71
2022/11/23 06:10:02;;;;;;;2.45;1.33;;;;;;;;;;5092589;28;20035;-72
2022/11/23 06:12:27;;;;;;;2.90;1.73;;;;;;;;;;5092640;28;20424;-72
2022/11/23 06:14:53;;;;;;;4.68;1.95;;;;;;;;;;5107947;28;20028;-71
2022/11/23 06:17:18;;;;;;;3.35;2.03;;;;;;;;;;5092236;28;20090;-72
2022/11/23 06:19:44;;;;;;;3.10;1.40;;;;;;;;;;5092299;28;20027;-72
2022/11/23 06:22:09;;;;;;;5.22;2.00;;;;;;;;;;5092234;28;20115;-71
2022/11/23 06:24:35;;;;;;;4.53;2.50;;;;;;;;;;5092034;28;20031;-71
2022/11/23 06:27:00;;;;;;;3.88;2.17;;;;;;;;;;5091599;28;20027;-70
2022/11/23 06:29:26;;;;;;;5.45;3.25;;;;;;;;;;5107679;28;20016;-70
2022/11/23 06:31:53;;;;;;;4.65;2.85;;;;;;;;;;5091921;28;20027;-71
2022/11/23 06:34:18;;;;;;;6.43;3.75;;;;;;;;;;5091967;28;20055;-70
2022/11/23 06:36:44;;;;;;;3.97;3.10;;;;;;;;;;5091629;28;20105;-69
2022/11/23 06:39:09;;;;;;;5.50;3.47;;;;;;;;;;5106969;28;20024;-73
2022/11/23 06:41:35;;;;;;;4.80;3.63;;;;;;;;;;5091689;28;20028;-70
2022/11/23 06:44:00;;;;;;;4.57;3.70;;;;;;;;;;5091542;28;20044;-71
2022/11/23 06:46:26;;;;;;;5.20;3.95;;;;;;;;;;5091572;28;20048;-69
2022/11/23 06:48:51;;;;;;;6.13;3.63;;;;;;;;;;5107223;28;20141;-69
2022/11/23 06:51:17;;;;;;;5.47;3.70;;;;;;;;;;5107018;28;20081;-69
2022/11/23 06:53:42;;;;;;;5.50;3.65;;;;;;;;;;5091850;28;20515;-70
2022/11/23 06:56:08;;;;;;;3.53;2.95;;;;;;;;;;5090959;28;20031;-68
2022/11/23 06:58:34;;;;;;;6.63;3.95;;;;;;;;;;5090272;28;20134;-70
2022/11/23 07:01:00;;;;;;;4.43;3.30;;;;;;;;;;5106320;28;20035;-70
2022/11/23 07:03:26;;;;;;;4.43;3.33;;;;;;;;;;5090742;28;20039;-71
2022/11/23 07:05:51;;;;;;;7.55;3.95;;;;;;;;;;5090940;28;20536;-70
2022/11/23 07:08:17;;;;;;;5.55;3.33;;;;;;;;;;5092300;28;20055;-72
2022/11/23 07:10:42;;;;;;;4.57;3.58;;;;;;;;;;5095036;28;20016;-70
2022/11/23 07:13:08;;;;;;;5.57;4.43;;;;;;;;;;5110911;28;20053;-71
2022/11/23 07:15:35;;;;;;;5.25;3.83;;;;;;;;;;5095131;28;20024;-71
2022/11/23 07:18:01;;;;;;;5.85;3.78;;;;;;;;;;5095529;28;20028;-70
2022/11/23 07:20:26;;;;;;;6.35;4.55;;;;;;;;;;5110770;28;20032;-72
2022/11/23 07:23:05;;;;;;;7.25;4.53;;;;;;;;;;5110290;28;20016;-72
2022/11/23 07:25:31;;;;;;;6.30;4.07;;;;;;;;;;5110580;28;20369;-72
2022/11/23 07:27:57;;;;;;;5.55;4.15;;;;;;;;;;5095267;28;20026;-71
2022/11/23 07:30:23;;;;;;;8.30;4.10;;;;;;;;;;5094980;28;20016;-72
2022/11/23 07:32:49;;;;;;;5.07;3.92;;;;;;;;;;5095014;28;20350;-72
2022/11/23 07:35:14;;;;;;;5.65;3.90;;;;;;;;;;5094958;28;20016;-72
2022/11/23 07:37:40;;;;;;;7.15;4.15;;;;;;;;;;5110371;28;20516;-71
2022/11/23 07:40:06;;;;;;;4.53;3.42;;;;;;;;;;5094766;28;20425;-71
2022/11/23 07:42:31;;;;;;;9.85;4.32;;;;;;;;;;5094635;28;20082;-71
2022/11/23 07:44:56;;;;;;;5.00;3.10;;;;;;;;;;5095350;28;20065;-69
2022/11/23 07:47:22;;;;;;;5.15;3.28;;;;;;;;;;5095271;28;20063;-71
2022/11/23 07:49:47;;;;;;;7.90;3.58;;;;;;;;;;5095618;28;20019;-71
2022/11/23 07:52:12;;;;;;;5.07;3.10;;;;;;;;;;5094967;28;20020;-73
2022/11/23 07:54:38;;;;;;;7.28;3.20;;;;;;;;;;5094381;28;20012;-70
2022/11/23 07:57:03;;;;;;;5.03;3.30;;;;;;;;;;5094089;28;20209;-72
2022/11/23 07:59:29;;;;;;;5.38;3.30;;;;;;;;;;5094977;28;20099;-74
2022/11/23 08:01:54;;;;;;;4.07;3.15;;;;;;;;;;5110899;28;20059;-71
2022/11/23 08:04:19;;;;;;;4.28;3.45;;;;;;;;;;5110891;28;20026;-71
2022/11/23 08:06:45;;;;;;;5.88;3.67;;;;;;;;;;5095029;28;20113;-72
2022/11/23 08:09:10;;;;;;;8.38;3.30;;;;;;;;;;5110119;28;20388;-73
2022/11/23 08:11:35;;;;;;;4.93;3.28;;;;;;;;;;5095149;28;20008;-73
2022/11/23 08:14:01;;;;;;;4.75;2.70;;;;;;;;;;5095168;28;20535;-73
2022/11/23 08:16:26;;;;;;;5.15;3.13;;;;;;;;;;5095206;28;20030;-73
2022/11/23 08:18:52;;;;;;;4.60;2.92;;;;;;;;;;5094507;28;20054;-71
2022/11/23 08:21:17;;;;;;;6.30;3.25;;;;;;;;;;5094709;28;20051;-72
2022/11/23 08:23:42;;;;;;;6.20;2.80;;;;;;;;;;5094978;28;20407;-72
2022/11/23 08:26:08;;;;;;;7.25;3.20;;;;;;;;;;5110485;28;20024;-71
2022/11/23 08:28:33;;;;;;;4.97;3.05;;;;;;;;;;5094811;28;20073;-72
2022/11/23 08:31:04;;;;;;;7.32;3.80;;;;;;;;;;5110063;28;20032;-70
2022/11/23 08:33:29;;;;;;;4.82;3.35;;;;;;;;;;5094419;28;20039;-71
2022/11/23 08:35:55;;;;;;;7.53;4.30;;;;;;;;;;5094431;28;20055;-68
2022/11/23 08:38:20;;;;;;;5.85;4.65;;;;;;;;;;5094292;28;20024;-69
2022/11/23 08:40:46;;;;;;;5.80;4.30;;;;;;;;;;5093473;28;20031;-69
2022/11/23 08:43:11;;;;;;;7.57;4.45;;;;;;;;;;5094445;28;20012;-66
2022/11/23 08:45:37;;;;;;;7.03;4.63;;;;;;;;;;5094424;28;20024;-68
2022/11/23 08:48:02;;;;;;;7.88;5.40;;;;;;;;;;5093959;28;20008;-67
2022/11/23 08:50:29;;;;;;;8.25;5.30;;;;;;;;;;5109377;28;20024;-66
2022/11/23 08:52:55;;;;;;;9.23;6.20;;;;;;;;;;5093783;28;20099;-67
2022/11/23 08:55:22;;;;;;;7.38;5.20;;;;;;;;;;5093591;28;20012;-68
2022/11/23 08:57:47;;;;;;;6.63;4.35;;;;;;;;;;5108806;28;20051;-68
2022/11/23 09:00:13;;;;;;;8.50;5.60;;;;;;;;;;5093446;28;20019;-68
2022/11/23 09:02:38;;;;;;;7.45;4.95;;;;;;;;;;5092897;28;20019;-69
2022/11/23 09:05:05;;;;;;;5.95;4.18;;;;;;;;;;5093406;28;20039;-69
2022/11/23 09:07:31;;;;;;;8.27;5.75;;;;;;;;;;5108937;28;20020;-68
2022/11/23 09:09:56;;;;;;;6.47;4.50;;;;;;;;;;5093203;28;20096;-68
2022/11/23 09:12:22;;;;;;;8.27;5.53;;;;;;;;;;5093676;28;20512;-67
2022/11/23 09:14:47;;;;;;;10.00;6.65;;;;;;;;;;5093632;28;20027;-68
2022/11/23 09:17:12;;;;;;;8.93;4.13;;;;;;;;;;5093564;28;20496;-70
2022/11/23 09:19:38;;;;;;;8.10;4.45;;;;;;;;;;5108847;28;20031;-68
2022/11/23 09:22:03;;;;;;;6.25;3.70;;;;;;;;;;5093108;28;20040;-69
2022/11/23 09:24:29;;;;;;;5.50;4.10;;;;;;;;;;5093047;28;20445;-69
2022/11/23 09:26:54;;;;;;;6.55;4.45;;;;;;;;;;5092965;28;20023;-68
2022/11/23 09:29:20;;;;;;;5.70;4.50;;;;;;;;;;5108971;28;20024;-70
2022/11/23 09:31:45;;;;;;;5.88;3.83;;;;;;;;;;5092089;28;20023;-70
2022/11/23 09:34:12;;;;;;;5.53;3.55;;;;;;;;;;5108885;28;20027;-69
2022/11/23 09:36:37;;;;;;;6.10;4.28;;;;;;;;;;5108551;28;20522;-69
2022/11/23 09:39:03;;;;;;;8.18;4.00;;;;;;;;;;5108263;28;20024;-69
2022/11/23 09:41:54;;;;;;;5.93;4.40;;;;;;;;;;5092954;28;20023;-68
2022/11/23 09:44:31;;;;;;;6.30;3.42;;;;;;;;;;5092701;28;20024;-70
2022/11/23 09:47:05;;;;;;;4.10;3.35;;;;;;;;;;5092688;28;20119;-64
2022/11/23 09:49:49;;;;;;;7.13;3.08;;;;;;;;;;5092564;28;20469;-70
2022/11/23 09:52:17;;;;;;;6.97;3.75;;;;;;;;;;5092465;28;20122;-68
2022/11/23 09:54:43;;;;;;;4.80;3.40;;;;;;;;;;5092471;28;20020;-70
2022/11/23 09:57:10;;;;;;;4.90;3.22;;;;;;;;;;5092052;28;20206;-70
2022/11/23 09:59:40;;;;;;;3.47;2.13;;;;;;;;;;5092774;28;20043;-70
2022/11/23 10:02:13;;;;;;;6.15;3.10;;;;;;;;;;5092107;28;20028;-69
2022/11/23 10:04:39;;;;;;;5.85;3.85;;;;;;;;;;5092375;28;20548;-69
2022/11/23 10:07:17;;;;;;;6.10;3.97;;;;;;;;;;5109126;28;20028;-70
2022/11/23 10:09:52;;;;;;;5.57;3.55;;;;;;;;;;5093066;28;20069;-72
2022/11/23 10:12:21;;;;;;;8.05;3.50;;;;;;;;;;5092407;28;20016;-69
2022/11/23 10:14:58;;;;;;;5.00;3.75;;;;;;;;;;5092305;28;20028;-68
2022/11/23 10:17:30;;;;;;;5.40;3.60;;;;;;;;;;5092379;28;20055;-70
2022/11/23 10:20:14;;;;;;;8.02;3.60;;;;;;;;;;5091555;28;20035;-70
2022/11/23 10:22:39;;;;;;;8.15;4.68;;;;;;;;;;5107514;28;20028;-69
2022/11/23 10:25:13;;;;;;;7.45;4.13;;;;;;;;;;5107176;28;20580;-67
2022/11/23 10:27:38;;;;;;;8.15;3.70;;;;;;;;;;5107634;28;20024;-69
2022/11/23 10:30:10;;;;;;;5.75;3.95;;;;;;;;;;5091553;28;20012;-69
2022/11/23 10:32:44;;;;;;;8.18;4.75;;;;;;;;;;5106969;28;20059;-70
2022/11/23 10:35:14;;;;;;;4.07;3.13;;;;;;;;;;5090787;28;20042;-69
2022/11/23 10:37:40;;;;;;;7.32;4.43;;;;;;;;;;5091502;28;20028;-69
2022/11/23 10:40:14;;;;;;;10.00;4.60;;;;;;;;;;5107021;28;20074;-69
2022/11/23 10:43:03;;;;;;;6.70;4.72;;;;;;;;;;5091410;28;20050;-70
2022/11/23 10:45:28;;;;;;;7.05;4.50;;;;;;;;;;5088156;28;20028;-69
2022/11/23 10:47:57;;;;;;;5.88;4.53;;;;;;;;;;5091508;28;20058;-71
2022/11/23 10:50:23;;;;;;;8.80;4.43;;;;;;;;;;5091621;28;20052;-68
2022/11/23 10:52:49;;;;;;;5.32;4.22;;;;;;;;;;5091647;28;20064;-70
2022/11/23 10:55:16;;;;;;;9.48;4.93;;;;;;;;;;5091162;28;20021;-69
2022/11/23 10:57:43;;;;;;;12.05;5.28;;;;;;;;;;5091456;28;20048;-69
2022/11/23 11:00:08;;;;;;;6.63;5.07;;;;;;;;;;5091062;28;20020;-69
2022/11/23 11:02:38;;;;;;;5.85;4.13;;;;;;;;;;5106618;28;20401;-69
2022/11/23 11:05:22;;;;;;;6.57;4.57;;;;;;;;;;5091246;28;20058;-67
2022/11/23 11:07:48;;;;;;;7.43;4.63;;;;;;;;;;5091248;28;20023;-71
2022/11/23 11:10:31;;;;;;;7.20;4.53;;;;;;;;;;5091400;28;20027;-70
2022/11/23 11:12:57;;;;;;;7.57;4.32;;;;;;;;;;5090918;28;20026;-69
2022/11/23 11:15:23;;;;;;;9.18;5.00;;;;;;;;;;5090996;28;20023;-69
2022/11/23 11:17:56;;;;;;;7.18;5.32;;;;;;;;;;5091556;28;20365;-71
2022/11/23 11:20:30;;;;;;;5.43;4.13;;;;;;;;;;5106364;28;20167;-70
2022/11/23 11:22:56;;;;;;;8.85;4.45;;;;;;;;;;5090510;28;20027;-71
2022/11/23 11:25:26;;;;;;;6.80;4.18;;;;;;;;;;5090767;28;20081;-69
2022/11/23 11:27:52;;;;;;;7.00;3.55;;;;;;;;;;5091383;28;20024;-71
2022/11/23 11:30:22;;;;;;;6.32;3.88;;;;;;;;;;5090876;28;20031;-72
2022/11/23 11:33:03;;;;;;;7.18;4.15;;;;;;;;;;5091156;28;20103;-72
2022/11/23 11:35:33;;;;;;;5.53;3.70;;;;;;;;;;5090893;28;20023;-71
2022/11/23 11:38:17;;;;;;;6.53;4.22;;;;;;;;;;5106633;28;20093;-71
2022/11/23 11:40:47;;;;;;;8.93;4.55;;;;;;;;;;5091150;28;20024;-69
2022/11/23 11:43:24;;;;;;;6.82;3.83;;;;;;;;;;5106445;28;20024;-71
2022/11/23 11:45:52;;;;;;;7.63;4.57;;;;;;;;;;5106599;28;20084;-69
2022/11/23 11:48:27;;;;;;;6.70;4.32;;;;;;;;;;5106757;28;20137;-71
2022/11/23 11:50:52;;;;;;;;;;;;;;;;;;5107128;28;20572;-73
2022/11/23 11:53:21;;;;;;;9.95;4.63;;;;;;;;;;5089294;28;19911;-72
2022/11/23 11:55:52;;;;;;;7.35;3.95;;;;;;;;;;5094227;28;20028;-73
2022/11/23 11:58:20;;;;;;;6.95;4.95;;;;;;;;;;5094496;28;20079;-70
2022/11/23 12:00:47;;;;;;;6.13;3.80;;;;;;;;;;5094159;28;20064;-69
2022/11/23 12:03:18;;;;;;;6.25;4.28;;;;;;;;;;5094284;28;20031;-68
2022/11/23 12:05:47;;;;;;;7.35;4.75;;;;;;;;;;5094707;28;20046;-71
2022/11/23 12:08:32;;;;;;;6.93;4.65;;;;;;;;;;5094196;28;20020;-70
2022/11/23 12:10:59;;;;;;;7.45;4.05;;;;;;;;;;5094070;28;20575;-70
2022/11/23 12:13:26;;;;;;;5.47;3.08;;;;;;;;;;5094539;28;20125;-72
2022/11/23 12:16:11;;;;;;;4.75;3.50;;;;;;;;;;5110261;28;20048;-71
2022/11/23 12:18:44;;;;;;;5.38;3.40;;;;;;;;;;5089942;28;20028;-71
2022/11/23 12:21:16;;;;;;;5.60;3.03;;;;;;;;;;5094364;28;20039;-72
2022/11/23 12:24:00;;;;;;;4.65;2.85;;;;;;;;;;5110210;28;20020;-71
2022/11/23 12:26:31;;;;;;;3.25;2.25;;;;;;;;;;5094355;28;20483;-70
2022/11/23 12:29:15;;;;;;;4.18;1.98;;;;;;;;;;5109326;28;20023;-66
2022/11/23 12:31:52;;;;;;;4.53;2.38;;;;;;;;;;5094282;28;20016;-72
2022/11/23 12:34:53;;;;;;;2.72;1.38;;;;;;;;;;5094049;28;20020;-72
2022/11/23 12:37:18;;;;;;;4.57;2.40;;;;;;;;;;5071097;28;20039;-71
2022/11/23 12:39:44;;;;;;;3.65;1.70;;;;;;;;;;5084192;28;20024;-72
2022/11/23 12:42:21;;;;;;;2.72;2.00;;;;;;;;;;5109348;28;20115;-73
2022/11/23 12:44:50;;;;;;;3.70;1.75;;;;;;;;;;5093748;28;20475;-73
2022/11/23 12:47:26;;;;;;;2.85;1.98;;;;;;;;;;5109171;28;20065;-74
2022/11/23 12:50:11;;;;;;;1.20;1.10;;;;;;;;;;5109707;28;20202;-73
2022/11/23 12:52:52;;;;;;;2.75;1.23;;;;;;;;;;5094015;28;20060;-74
2022/11/23 12:55:23;;;;;;;3.35;1.88;;;;;;;;;;5109235;28;20036;-73
2022/11/23 12:58:02;;;;;;;4.57;1.80;;;;;;;;;;5109101;28;20044;-73
2022/11/23 13:00:30;;;;;;;2.25;1.40;;;;;;;;;;5093965;28;20084;-73
2022/11/23 13:02:56;;;;;;;6.57;1.83;;;;;;;;;;5093249;28;20019;-71
2022/11/23 13:05:28;;;;;;;3.88;1.55;;;;;;;;;;5094512;28;20080;-73
2022/11/23 13:08:12;;;;;;;1.55;1.30;;;;;;;;;;5094701;28;20035;-73
2022/11/23 13:10:44;;;;;;;1.50;1.20;;;;;;;;;;5109758;28;20425;-72
2022/11/23 13:13:21;;;;;;;2.40;1.08;;;;;;;;;;5098490;28;20028;-74
2022/11/23 13:16:05;;;;;;;1.67;1.00;;;;;;;;;;5093088;28;20024;-71
2022/11/23 13:18:40;;;;;;;2.15;0.95;;;;;;;;;;5094372;28;20024;-72
2022/11/23 13:21:19;;;;;;;3.50;1.10;;;;;;;;;;5093226;28;20110;-71
2022/11/23 13:23:45;;;;;;;2.58;1.17;;;;;;;;;;5108769;28;20433;-73
2022/11/23 13:26:18;;;;;;;4.70;0.88;;;;;;;;;;5093683;28;20012;-74
2022/11/23 13:28:45;;;;;;;3.38;1.10;;;;;;;;;;5108801;28;20039;-73
2022/11/23 13:31:16;;;;;;;4.95;1.27;;;;;;;;;;5093193;28;20027;-73
2022/11/23 13:33:42;;;;;;;2.25;1.33;;;;;;;;;;5092911;28;20012;-73
2022/11/23 13:36:12;;;;;;;1.60;0.90;;;;;;;;;;5093130;28;20353;-72
2022/11/23 13:38:41;;;;;;;3.80;1.33;;;;;;;;;;5092860;28;20070;-73
2022/11/23 13:41:25;;;;;;;1.23;0.73;;;;;;;;;;5092297;28;20040;-75
2022/11/23 13:43:50;;;;;;;3.67;1.08;;;;;;;;;;5092634;28;20505;-73
2022/11/23 13:46:23;;;;;;;3.20;1.40;;;;;;;;;;5092549;28;20135;-74
2022/11/23 13:48:50;;;;;;;3.95;1.85;;;;;;;;;;5092675;28;20024;-72
2022/11/23 13:51:23;;;;;;;1.55;1.20;;;;;;;;;;5091528;28;20061;-75
2022/11/23 13:53:54;;;;;;;1.52;1.00;;;;;;;;;;5092746;28;20047;-72
2022/11/23 13:56:23;;;;;;;7.93;1.27;;;;;;;;;;5092471;28;20027;-73
2022/11/23 13:58:49;;;;;;;1.15;0.80;;;;;;;;;;5107899;28;20063;-74
2022/11/23 14:01:35;;;;;;;1.17;0.68;;;;;;;;;;5092525;28;20055;-71
2022/11/23 14:04:19;;;;;;;0.60;0.40;;;;;;;;;;5092665;28;20085;-73
2022/11/23 14:06:45;;;;;;;;;;;;;;;;;;5093020;28;20047;-74
2022/11/23 14:09:15;;;;;;;2.97;1.05;;;;;;;;;;5090614;28;20414;-72
2022/11/23 14:11:59;;;;;;;0.80;0.60;;;;;;;;;;5107997;28;20017;-73
2022/11/23 14:14:27;;;;;;;1.00;0.63;;;;;;;;;;5108271;28;20015;-75
2022/11/23 14:17:03;;;;;;;1.92;0.70;;;;;;;;;;5091698;28;20049;-73
2022/11/23 14:19:47;;;;;;;2.25;0.52;;;;;;;;;;5091927;28;20095;-75
2022/11/23 14:22:29;;;;;;;1.85;0.95;;;;;;;;;;5091884;28;20077;-72
2022/11/23 14:25:03;;;;;;;0.85;0.80;;;;;;;;;;5091673;28;20016;-75
2022/11/23 14:27:51;;;;;;;0.90;0.70;;;;;;;;;;5091632;28;20054;-72
2022/11/23 14:30:49;;;;;;;5.88;1.15;;;;;;;;;;5088114;28;20403;-76
2022/11/23 14:33:32;;;;;;;2.83;0.90;;;;;;;;;;5079079;28;20477;-75
2022/11/23 14:36:14;;;;;;;1.67;1.23;;;;;;;;;;5107355;28;20020;-74
2022/11/23 14:39:09;;;;;;;0.50;0.28;;;;;;;;;;5091732;28;20077;-73
2022/11/23 14:41:39;;;;;;;5.35;0.43;;;;;;;;;;5071599;28;20040;-73
2022/11/23 14:44:10;;;;;;;0.88;0.65;;;;;;;;;;5107569;28;20020;-74
2022/11/23 14:46:35;;;;;;;1.10;0.90;;;;;;;;;;5092245;28;20376;-74
2022/11/23 14:49:02;;;;;;;1.00;0.30;;;;;;;;;;5094745;28;20087;-74
2022/11/23 14:51:28;;;;;;;2.15;1.13;;;;;;;;;;5095749;28;20016;-73